Thursday, September 20, 2018, 12:37 PM EDT
Back to Local

KWST, Westerly State Airport

Location: Westerly, RI, United States Lat: 41.35
Local Time: 12:37 PM EDT (16:37 GMT) Lon: -71.8
Time Zone: US/Eastern Elev: 82 ft

Show me the last for .
Show Coded

Time T Td Feel RH Dir Speed Gust Alt SLP Vis Weather Sky Remarks
2018-09-20 12:26 71 59 76 65 40° 9 - 30.24 - 10 BKN032 OVC050 None
2018-09-20 12:06 71 59 76 65 20° 8 - 30.25 - 10 BKN028 None
2018-09-20 11:53 71 59 76 65 30° 8 - 30.24 30.24 10 SCT027 None
2018-09-20 10:53 69 58 - 67 360° 13 - 30.25 30.24 10 SCT023 None
2018-09-20 09:53 67 58 - 72 10° 9 18 30.22 30.21 10 FEW018 None
2018-09-20 08:53 65 59 - 81 30° 10 18 30.20 30.20 10 CLR None
2018-09-20 07:53 62 58 - 86 360° 8 - 30.18 30.18 10 CLR 6-hr Min Temp (8am): 57.9°F
6-hr Max Temp (8am): 62.1°F
2018-09-20 06:53 59 57 - 93 350° 6 - 30.15 30.15 10 CLR None
2018-09-20 05:53 59 57 - 93 350° 5 - 30.14 30.14 10 SCT050 None
2018-09-20 05:04 60 58 - 92 20° 6 - 30.13 - 10 SCT018 OVC047 None
2018-09-20 04:53 60 58 - 92 30° 3 - 30.12 30.12 10 BKN018 OVC048 None
2018-09-20 03:53 59 57 - 93 360° 7 - 30.12 30.11 10 OVC019 None
2018-09-20 02:53 59 57 - 93 340° 5 - 30.11 30.11 10 BKN019 None
2018-09-20 01:53 59 57 - 93 - Calm - 30.10 30.10 10 CLR 6-hr Min Temp (2am): 59.0°F
6-hr Max Temp (2am): 63.0°F
2018-09-20 00:53 60 57 - 89 10° 5 - 30.11 30.10 10 OVC055 24-hr Min Temp (1am): 59.0°F
24-hr Max Temp (1am): 73.0°F
2018-09-19 23:53 59 57 - 93 350° 5 - 30.10 30.09 10 BKN055 None
2018-09-19 22:53 59 57 - 93 10° 5 - 30.08 30.08 10 CLR None
2018-09-19 21:53 60 57 - 89 40° 5 - 30.08 30.07 10 FEW050 None
2018-09-19 20:53 61 58 - 89 20° 6 - 30.05 30.05 10 CLR None
2018-09-19 19:53 63 59 - 86 40° 6 - 30.03 30.03 10 CLR 6-hr Min Temp (8pm): 63.0°F
6-hr Max Temp (8pm): 73.0°F
2018-09-19 19:19 64 60 - 86 40° 8 - 30.02 - 10 FEW017 None
2018-09-19 18:53 66 61 - 83 40° 6 - 30.01 30.00 10 OVC018 None
2018-09-19 17:53 67 61 - 81 20° 8 20 29.99 29.99 10 BKN019 None
2018-09-19 16:53 69 63 - 80 30° 8 - 29.96 29.96 10 OVC018 None
2018-09-19 15:53 71 64 76 78 360° 12 18 29.95 29.94 10 OVC018 None
2018-09-19 15:21 72 64 76 76 20° 8 - 29.94 - 10 BKN017 OVC046 None
2018-09-19 15:03 73 65 77 75 40° 6 - 29.94 - 10 SCT018 BKN046 None
2018-09-19 14:53 73 64 77 73 360° 12 17 29.93 29.93 10 BKN017 BKN046 None
2018-09-19 13:53 71 64 76 78 20° 8 - 29.94 29.94 10 BKN016 OVC030 6-hr Precip Total (2pm): 0.00"
6-hr Min Temp (2pm): 68.0°F
6-hr Max Temp (2pm): 72.0°F
2018-09-19 13:35 71 64 76 78 Variable 7 - 29.94 - 10 BKN015 OVC029 None
2018-09-19 13:05 70 65 - 84 10° 9 - 29.94 - 10 OVC013 None
2018-09-19 12:53 71 65 76 81 360° 9 - 29.94 29.93 10 OVC015 None
2018-09-19 12:50 72 64 76 78 10° 9 - 29.94 - 10 OVC015 None

Support USWX by starting your Amazon purchase here.